createdAt,value
2023-04-22T00:00:17.066Z,5.47
2023-04-22T00:02:45.749Z,5.43
2023-04-22T00:05:16.594Z,4.50
2023-04-22T00:07:52.982Z,3.93
2023-04-22T00:10:22.433Z,4.37
2023-04-22T00:12:50.639Z,6.57
2023-04-22T00:15:22.076Z,4.13
2023-04-22T00:17:50.694Z,3.40
2023-04-22T00:20:21.658Z,3.20
2023-04-22T00:22:53.056Z,2.90
2023-04-22T00:25:22.610Z,3.13
2023-04-22T00:27:50.806Z,4.37
2023-04-22T00:30:20.304Z,5.10
2023-04-22T00:32:49.757Z,5.30
2023-04-22T00:35:18.022Z,3.50
2023-04-22T00:37:48.736Z,3.10
2023-04-22T00:40:16.971Z,4.40
2023-04-22T00:42:47.380Z,5.77
2023-04-22T00:45:18.401Z,6.33
2023-04-22T00:47:47.036Z,3.70
2023-04-22T00:50:18.196Z,3.63
2023-04-22T00:52:46.510Z,3.40
2023-04-22T00:55:14.734Z,4.73
2023-04-22T00:57:44.405Z,4.30
2023-04-22T01:00:15.351Z,4.43
2023-04-22T01:02:44.133Z,3.97
2023-04-22T01:05:13.046Z,5.03
2023-04-22T01:07:41.259Z,4.03
2023-04-22T01:10:10.308Z,4.63
2023-04-22T01:12:38.580Z,3.93
2023-04-22T01:15:10.867Z,5.03
2023-04-22T01:17:41.040Z,3.67
2023-04-22T01:20:13.960Z,4.80
2023-04-22T01:22:46.146Z,3.00
2023-04-22T01:25:15.717Z,4.70
2023-04-22T01:27:44.591Z,5.40
2023-04-22T01:30:13.750Z,5.67
2023-04-22T01:32:44.036Z,4.30
2023-04-22T01:35:13.693Z,4.20
2023-04-22T01:37:44.310Z,5.30
2023-04-22T01:40:16.011Z,3.90
2023-04-22T01:42:46.644Z,3.10
2023-04-22T01:45:17.606Z,3.20
2023-04-22T01:47:45.885Z,4.87
2023-04-22T01:50:14.685Z,3.83
2023-04-22T01:52:45.526Z,6.37
2023-04-22T01:55:14.134Z,6.00
2023-04-22T01:57:44.404Z,4.77
2023-04-22T02:00:14.905Z,5.50
2023-04-22T02:02:47.356Z,4.93
2023-04-22T02:05:19.703Z,4.00
2023-04-22T02:07:48.038Z,3.97
2023-04-22T02:10:18.152Z,4.40
2023-04-22T02:12:48.621Z,5.90
2023-04-22T02:15:18.269Z,4.27
2023-04-22T02:17:53.916Z,5.50
2023-04-22T02:20:22.221Z,6.17
2023-04-22T02:22:50.883Z,4.00
2023-04-22T02:25:21.738Z,4.93
2023-04-22T02:27:51.473Z,2.90
2023-04-22T02:30:27.094Z,2.90
2023-04-22T02:32:56.180Z,2.60
2023-04-22T02:35:27.989Z,4.00
2023-04-22T02:37:56.174Z,4.73
2023-04-22T02:40:27.902Z,4.20
2023-04-22T02:42:56.134Z,4.80
2023-04-22T02:45:27.310Z,3.90
2023-04-22T02:47:57.122Z,4.40
2023-04-22T02:50:28.127Z,5.47
2023-04-22T02:52:56.332Z,4.60
2023-04-22T02:55:25.472Z,3.63
2023-04-22T02:57:59.487Z,4.10
2023-04-22T03:00:29.739Z,4.40
2023-04-22T03:03:00.580Z,4.07
2023-04-22T03:05:34.967Z,4.10
2023-04-22T03:08:04.093Z,5.90
2023-04-22T03:10:32.524Z,5.00
2023-04-22T03:13:00.754Z,4.93
2023-04-22T03:15:30.625Z,4.40
2023-04-22T03:17:58.872Z,3.80
2023-04-22T03:20:34.717Z,3.53
2023-04-22T03:23:07.074Z,3.43
2023-04-22T03:25:38.416Z,6.20
2023-04-22T03:28:09.506Z,5.10
2023-04-22T03:30:41.438Z,5.00
2023-04-22T03:33:12.364Z,4.43
2023-04-22T03:35:55.018Z,3.53
2023-04-22T03:38:30.595Z,4.93
2023-04-22T03:41:01.853Z,4.40
2023-04-22T03:43:40.065Z,4.07
2023-04-22T03:46:11.958Z,5.80
2023-04-22T03:48:43.211Z,4.73
2023-04-22T03:51:20.460Z,3.93
2023-04-22T03:53:58.421Z,4.13
2023-04-22T03:56:29.399Z,4.00
2023-04-22T03:59:12.688Z,3.10
2023-04-22T04:01:47.076Z,3.50
2023-04-22T04:04:19.450Z,5.70
2023-04-22T04:06:55.859Z,5.33
2023-04-22T04:09:50.962Z,5.87
2023-04-22T04:12:21.706Z,6.67
2023-04-22T04:14:52.586Z,4.03
2023-04-22T04:17:35.109Z,4.53
2023-04-22T04:20:08.394Z,4.50
2023-04-22T04:22:39.871Z,6.63
2023-04-22T04:25:10.674Z,4.07
2023-04-22T04:27:42.818Z,7.70
2023-04-22T04:30:16.414Z,8.77
2023-04-22T04:32:52.380Z,4.80
2023-04-22T04:35:26.726Z,6.63
2023-04-22T04:37:57.083Z,5.67
2023-04-22T04:40:31.964Z,3.97
2023-04-22T04:43:12.969Z,4.30
2023-04-22T04:45:56.447Z,3.33
2023-04-22T04:48:36.933Z,3.83
2023-04-22T04:51:25.094Z,4.20
2023-04-22T04:53:57.917Z,3.60
2023-04-22T04:56:29.156Z,3.93
2023-04-22T04:59:04.980Z,4.10
2023-04-22T05:01:35.153Z,4.90
2023-04-22T05:04:11.447Z,4.73
2023-04-22T05:06:43.054Z,4.37
2023-04-22T05:09:11.270Z,4.83
2023-04-22T05:11:43.348Z,7.90
2023-04-22T05:14:16.671Z,7.30
2023-04-22T05:16:47.189Z,8.27
2023-04-22T05:19:18.264Z,6.70
2023-04-22T05:21:50.249Z,10.23
2023-04-22T05:24:18.964Z,7.27
2023-04-22T05:26:47.469Z,5.30
2023-04-22T05:29:19.517Z,5.50
2023-04-22T05:31:47.960Z,6.23
2023-04-22T05:34:17.556Z,5.47
2023-04-22T05:36:48.101Z,6.13
2023-04-22T05:39:18.829Z,7.63
2023-04-22T05:41:47.632Z,5.73
2023-04-22T05:44:17.638Z,9.23
2023-04-22T05:46:45.981Z,7.37
2023-04-22T05:49:19.763Z,6.17
2023-04-22T05:52:06.271Z,6.23
2023-04-22T05:54:49.993Z,7.20
2023-04-22T05:57:18.952Z,5.53
2023-04-22T05:59:47.398Z,5.20
2023-04-22T06:02:25.368Z,8.03
2023-04-22T06:04:55.184Z,6.10
2023-04-22T06:07:23.553Z,5.40
2023-04-22T06:09:59.448Z,6.87
2023-04-22T06:12:32.588Z,5.13
2023-04-22T06:15:01.936Z,7.23
2023-04-22T06:17:30.194Z,9.03
2023-04-22T06:19:59.819Z,7.43
2023-04-22T06:22:28.006Z,6.80
2023-04-22T06:24:56.717Z,7.10
2023-04-22T06:27:26.612Z,6.57
2023-04-22T06:29:59.130Z,8.13
2023-04-22T06:32:34.018Z,9.03
2023-04-22T06:35:05.811Z,7.40
2023-04-22T06:37:36.904Z,8.17
2023-04-22T06:40:09.134Z,8.60
2023-04-22T06:42:56.103Z,8.90
2023-04-22T06:45:50.387Z,7.37
2023-04-22T06:48:38.956Z,8.77
2023-04-22T06:51:43.237Z,8.87
2023-04-22T06:54:11.461Z,7.03
2023-04-22T06:56:39.634Z,7.10
2023-04-22T06:59:13.351Z,5.57
2023-04-22T07:01:41.676Z,8.50
2023-04-22T07:04:12.940Z,7.23
2023-04-22T07:06:42.527Z,6.93
2023-04-22T07:09:10.682Z,7.40
2023-04-22T07:11:42.633Z,8.20
2023-04-22T07:14:18.316Z,9.13
2023-04-22T07:16:48.567Z,8.47
2023-04-22T07:19:16.754Z,7.27
2023-04-22T07:21:46.524Z,6.33
2023-04-22T07:24:15.944Z,5.20
2023-04-22T07:26:45.014Z,6.17
2023-04-22T07:29:14.924Z,8.90
2023-04-22T07:31:48.165Z,6.57
2023-04-22T07:34:17.474Z,6.63
2023-04-22T07:36:47.173Z,7.30
2023-04-22T07:39:15.434Z,7.63
2023-04-22T07:41:43.640Z,9.00
2023-04-22T07:44:16.414Z,7.40
2023-04-22T07:46:44.579Z,6.73
2023-04-22T07:49:14.166Z,6.10
2023-04-22T07:51:42.581Z,9.13
2023-04-22T07:54:12.210Z,6.70
2023-04-22T07:56:40.380Z,7.30
2023-04-22T07:59:35.449Z,5.80
2023-04-22T08:02:07.710Z,6.93
2023-04-22T08:04:38.360Z,7.53
2023-04-22T08:07:30.406Z,4.40
2023-04-22T08:09:58.569Z,7.00
2023-04-22T08:12:29.182Z,4.70
2023-04-22T08:14:58.151Z,5.17
2023-04-22T08:17:28.217Z,8.20
2023-04-22T08:20:00.329Z,6.23
2023-04-22T08:22:28.692Z,7.37
2023-04-22T08:24:58.260Z,5.23
2023-04-22T08:27:26.378Z,6.63
2023-04-22T08:29:54.564Z,6.87
2023-04-22T08:32:25.065Z,6.37
2023-04-22T08:35:01.405Z,6.37
2023-04-22T08:37:32.825Z,5.70
2023-04-22T08:40:02.439Z,6.30
2023-04-22T08:42:31.736Z,5.03
2023-04-22T08:45:00.037Z,7.57
2023-04-22T08:47:29.083Z,5.70
2023-04-22T08:49:57.276Z,6.00
2023-04-22T08:52:25.429Z,5.33
2023-04-22T08:54:53.697Z,5.77
2023-04-22T08:57:23.383Z,5.03
2023-04-22T08:59:52.451Z,6.07
2023-04-22T09:02:24.902Z,5.83
2023-04-22T09:04:54.592Z,6.07
2023-04-22T09:07:27.963Z,5.20
2023-04-22T09:09:56.984Z,5.43
2023-04-22T09:12:28.485Z,5.00
2023-04-22T09:14:58.061Z,6.27
2023-04-22T09:17:38.270Z,4.63
2023-04-22T09:20:08.880Z,5.00
2023-04-22T09:22:43.229Z,4.40
2023-04-22T09:25:20.611Z,5.23
2023-04-22T09:27:54.072Z,4.87
2023-04-22T09:30:29.390Z,5.83
2023-04-22T09:32:58.765Z,5.63
2023-04-22T09:35:31.967Z,7.17
2023-04-22T09:38:01.932Z,5.00
2023-04-22T09:40:31.240Z,5.53
2023-04-22T09:43:03.598Z,5.60
2023-04-22T09:45:33.727Z,4.87
2023-04-22T09:48:08.847Z,5.40
2023-04-22T09:50:37.966Z,5.00
2023-04-22T09:53:08.091Z,6.30
2023-04-22T09:55:38.837Z,5.53
2023-04-22T09:58:12.430Z,6.20
2023-04-22T10:01:08.095Z,3.90
2023-04-22T10:04:01.756Z,5.20
2023-04-22T10:06:31.971Z,4.63
2023-04-22T10:09:05.727Z,5.00
2023-04-22T10:11:36.049Z,3.70
2023-04-22T10:14:05.595Z,4.23
2023-04-22T10:16:36.354Z,5.27
2023-04-22T10:19:15.849Z,4.67
2023-04-22T10:21:46.753Z,5.93
2023-04-22T10:24:19.025Z,5.27
2023-04-22T10:26:52.581Z,5.37
2023-04-22T10:29:23.471Z,6.03
2023-04-22T10:32:25.060Z,4.97
2023-04-22T10:35:10.068Z,4.80
2023-04-22T10:37:39.108Z,5.20
2023-04-22T10:40:09.632Z,5.27
2023-04-22T10:42:40.016Z,3.97
2023-04-22T10:45:14.756Z,4.07
2023-04-22T10:47:43.319Z,5.40
2023-04-22T10:50:20.216Z,5.17
2023-04-22T10:52:52.487Z,5.10
2023-04-22T10:55:28.760Z,5.57
2023-04-22T10:57:57.152Z,3.53
2023-04-22T11:00:52.307Z,4.53
2023-04-22T11:03:28.936Z,3.73
2023-04-22T11:06:17.146Z,4.80
2023-04-22T11:08:48.067Z,4.93
2023-04-22T11:11:19.184Z,7.33
2023-04-22T11:13:50.826Z,4.73
2023-04-22T11:16:23.124Z,5.40
2023-04-22T11:18:51.538Z,4.43
2023-04-22T11:21:22.394Z,4.00
2023-04-22T11:23:53.642Z,4.60
2023-04-22T11:26:35.176Z,5.60
2023-04-22T11:29:03.574Z,4.70
2023-04-22T11:31:33.256Z,4.03
2023-04-22T11:34:01.574Z,4.90
2023-04-22T11:36:29.913Z,6.27
2023-04-22T11:38:59.641Z,5.60
2023-04-22T11:41:30.109Z,5.77
2023-04-22T11:44:01.666Z,5.57
2023-04-22T11:46:38.462Z,4.70
2023-04-22T11:49:14.602Z,4.30
2023-04-22T11:51:56.777Z,5.47
2023-04-22T11:54:33.376Z,6.10
2023-04-22T11:57:09.450Z,4.93
2023-04-22T11:59:37.961Z,4.33
2023-04-22T12:02:08.749Z,4.73
2023-04-22T12:04:38.840Z,6.60
2023-04-22T12:07:07.449Z,3.87
2023-04-22T12:09:37.900Z,5.20
2023-04-22T12:12:06.612Z,3.93
2023-04-22T12:14:37.366Z,4.30
2023-04-22T12:17:10.693Z,5.83
2023-04-22T12:19:39.328Z,6.07
2023-04-22T12:22:08.947Z,4.10
2023-04-22T12:24:37.138Z,4.30
2023-04-22T12:27:05.443Z,4.63
2023-04-22T12:29:35.022Z,3.67
2023-04-22T12:32:07.401Z,3.50
2023-04-22T12:34:35.653Z,4.53
2023-04-22T12:37:03.903Z,5.20
2023-04-22T12:39:33.690Z,5.30
2023-04-22T12:42:02.013Z,4.63
2023-04-22T12:44:30.551Z,5.43
2023-04-22T12:46:58.914Z,6.37
2023-04-22T12:49:30.976Z,5.20
2023-04-22T12:51:59.239Z,4.13
2023-04-22T12:54:27.458Z,4.60
2023-04-22T12:56:57.859Z,4.63
2023-04-22T12:59:26.357Z,3.73
2023-04-22T13:01:54.877Z,4.37
2023-04-22T13:04:23.236Z,4.43
2023-04-22T13:06:56.394Z,4.37
2023-04-22T13:09:26.182Z,3.80
2023-04-22T13:11:54.700Z,3.90
2023-04-22T13:14:22.874Z,4.40
2023-04-22T13:16:51.306Z,4.80
2023-04-22T13:19:27.804Z,5.00
2023-04-22T13:21:57.551Z,6.17
2023-04-22T13:24:28.465Z,4.87
2023-04-22T13:27:02.784Z,3.77
2023-04-22T13:29:31.063Z,5.00
2023-04-22T13:31:59.435Z,4.67
2023-04-22T13:34:27.692Z,5.30
2023-04-22T13:36:57.470Z,4.80
2023-04-22T13:39:25.966Z,5.10
2023-04-22T13:41:54.161Z,4.63
2023-04-22T13:44:26.094Z,4.33
2023-04-22T13:46:54.262Z,4.00
2023-04-22T13:49:22.445Z,4.37
2023-04-22T13:51:51.052Z,4.33
2023-04-22T13:54:24.177Z,4.40
2023-04-22T13:56:52.457Z,3.80
2023-04-22T13:59:20.743Z,3.90
2023-04-22T14:01:49.035Z,4.30
2023-04-22T14:04:17.195Z,3.87
2023-04-22T14:06:45.445Z,5.00
2023-04-22T14:09:13.641Z,4.93
2023-04-22T14:11:44.699Z,4.00
2023-04-22T14:14:15.746Z,6.70
2023-04-22T14:16:43.993Z,4.67
2023-04-22T14:19:12.264Z,4.10
2023-04-22T14:21:40.557Z,4.57
2023-04-22T14:24:08.869Z,5.90
2023-04-22T14:26:40.020Z,3.00
2023-04-22T14:29:17.157Z,4.43
2023-04-22T14:31:46.499Z,2.97
2023-04-22T14:34:14.736Z,3.80
2023-04-22T14:36:42.988Z,4.33
2023-04-22T14:39:11.891Z,3.73
2023-04-22T14:41:40.236Z,4.30
2023-04-22T14:44:09.849Z,4.97
2023-04-22T14:46:38.122Z,3.40
2023-04-22T14:49:06.399Z,3.80
2023-04-22T14:51:41.193Z,2.70
2023-04-22T14:54:09.435Z,4.90
2023-04-22T14:56:40.817Z,4.27
2023-04-22T14:59:12.618Z,5.03
2023-04-22T15:01:43.131Z,4.00
2023-04-22T15:04:13.656Z,3.43
2023-04-22T15:06:43.759Z,3.90
2023-04-22T15:09:12.374Z,3.87
2023-04-22T15:11:40.930Z,4.03
2023-04-22T15:14:09.194Z,6.00
2023-04-22T15:16:38.934Z,4.40
2023-04-22T15:19:09.911Z,4.40
2023-04-22T15:21:41.543Z,4.50
2023-04-22T15:24:09.856Z,3.87
2023-04-22T15:26:39.836Z,2.90
2023-04-22T15:29:08.206Z,3.57
2023-04-22T15:31:41.159Z,4.47
2023-04-22T15:34:09.368Z,3.70
2023-04-22T15:36:38.056Z,5.83
2023-04-22T15:39:14.414Z,5.13
2023-04-22T15:41:43.560Z,3.90
2023-04-22T15:44:13.050Z,3.87
2023-04-22T15:46:42.857Z,4.50
2023-04-22T15:49:11.240Z,5.00
2023-04-22T15:51:39.552Z,3.60
2023-04-22T15:54:08.772Z,3.73
2023-04-22T15:56:37.541Z,3.13
2023-04-22T15:59:21.542Z,3.73
2023-04-22T16:01:51.586Z,3.60
2023-04-22T16:04:23.522Z,3.87
2023-04-22T16:06:51.941Z,3.00
2023-04-22T16:09:27.810Z,3.47
2023-04-22T16:11:56.949Z,3.87
2023-04-22T16:14:25.145Z,3.40
2023-04-22T16:16:54.810Z,3.90
2023-04-22T16:19:23.132Z,3.20
2023-04-22T16:21:51.851Z,3.30
2023-04-22T16:24:20.034Z,3.33
2023-04-22T16:26:48.319Z,3.00
2023-04-22T16:29:16.586Z,3.57
2023-04-22T16:31:44.937Z,2.57
2023-04-22T16:34:14.678Z,4.10
2023-04-22T16:36:44.366Z,4.77
2023-04-22T16:39:12.634Z,4.17
2023-04-22T16:41:42.792Z,4.27
2023-04-22T16:44:12.596Z,4.17
2023-04-22T16:46:43.787Z,3.10
2023-04-22T16:49:23.891Z,2.83
2023-04-22T16:51:53.517Z,4.60
2023-04-22T16:54:21.766Z,3.67
2023-04-22T16:56:49.969Z,3.27
2023-04-22T16:59:18.161Z,3.70
2023-04-22T17:01:49.391Z,3.60
2023-04-22T17:04:17.846Z,3.47
2023-04-22T17:06:50.892Z,4.37
2023-04-22T17:09:20.611Z,4.33
2023-04-22T17:11:48.957Z,4.17
2023-04-22T17:14:41.829Z,3.97
2023-04-22T17:17:10.080Z,3.70
2023-04-22T17:19:38.287Z,4.10
2023-04-22T17:22:08.475Z,3.73
2023-04-22T17:24:38.032Z,4.03
2023-04-22T17:27:09.036Z,4.70
2023-04-22T17:29:37.261Z,4.40
2023-04-22T17:32:05.756Z,3.50
2023-04-22T17:34:33.980Z,2.97
2023-04-22T17:37:09.405Z,3.90
2023-04-22T17:39:42.090Z,4.60
2023-04-22T17:42:10.347Z,4.07
2023-04-22T17:44:38.831Z,3.33
2023-04-22T17:47:07.630Z,4.20
2023-04-22T17:49:36.014Z,4.00
2023-04-22T17:52:04.206Z,3.77
2023-04-22T17:54:32.494Z,3.70
2023-04-22T17:57:02.226Z,4.90
2023-04-22T17:59:30.433Z,3.60
2023-04-22T18:01:59.652Z,3.80
2023-04-22T18:04:29.343Z,3.87
2023-04-22T18:06:58.676Z,3.83
2023-04-22T18:09:27.437Z,4.10
2023-04-22T18:11:58.271Z,3.80
2023-04-22T18:14:27.874Z,3.60
2023-04-22T18:16:57.671Z,3.67
2023-04-22T18:19:26.082Z,3.87
2023-04-22T18:22:00.196Z,2.93
2023-04-22T18:24:29.220Z,3.60
2023-04-22T18:26:58.126Z,4.50
2023-04-22T18:29:27.727Z,4.43
2023-04-22T18:31:57.712Z,4.10
2023-04-22T18:34:25.982Z,4.40
2023-04-22T18:36:54.222Z,4.37
2023-04-22T18:39:27.813Z,3.07
2023-04-22T18:41:56.024Z,4.30
2023-04-22T18:44:24.321Z,4.07
2023-04-22T18:46:54.904Z,5.10
2023-04-22T18:49:26.485Z,4.57
2023-04-22T18:51:54.667Z,3.60
2023-04-22T18:54:23.303Z,4.07
2023-04-22T18:56:55.840Z,2.70
2023-04-22T18:59:24.150Z,3.27
2023-04-22T19:01:53.793Z,3.30
2023-04-22T19:04:22.104Z,3.73
2023-04-22T19:06:50.412Z,3.07
2023-04-22T19:09:19.482Z,4.30
2023-04-22T19:11:47.880Z,5.70
2023-04-22T19:14:16.142Z,5.53
2023-04-22T19:16:44.732Z,4.30
2023-04-22T19:19:17.188Z,3.53
2023-04-22T19:21:46.407Z,4.93
2023-04-22T19:24:17.743Z,3.53
2023-04-22T19:26:47.555Z,3.50
2023-04-22T19:29:17.039Z,3.20
2023-04-22T19:31:45.688Z,4.33
2023-04-22T19:34:15.785Z,3.17
2023-04-22T19:36:44.021Z,3.83
2023-04-22T19:39:14.014Z,3.63
2023-04-22T19:41:43.915Z,3.70
2023-04-22T19:44:13.442Z,4.50
2023-04-22T19:46:41.694Z,5.23
2023-04-22T19:49:10.660Z,5.30
2023-04-22T19:51:41.067Z,4.63
2023-04-22T19:54:11.959Z,4.67
2023-04-22T19:56:41.574Z,4.40
2023-04-22T19:59:10.301Z,3.43
2023-04-22T20:01:39.126Z,4.87
2023-04-22T20:04:08.004Z,4.43
2023-04-22T20:06:36.916Z,4.33
2023-04-22T20:09:07.758Z,4.93
2023-04-22T20:11:36.803Z,3.70
2023-04-22T20:14:07.473Z,4.23
2023-04-22T20:16:36.304Z,4.90
2023-04-22T20:19:04.771Z,3.97
2023-04-22T20:21:35.450Z,4.27
2023-04-22T20:24:05.070Z,3.57
2023-04-22T20:26:45.789Z,5.50
2023-04-22T20:29:14.607Z,3.80
2023-04-22T20:31:46.742Z,3.83
2023-04-22T20:34:21.227Z,3.77
2023-04-22T20:36:53.638Z,3.70
2023-04-22T20:39:23.419Z,2.80
2023-04-22T20:41:58.500Z,2.90
2023-04-22T20:44:28.701Z,4.50
2023-04-22T20:47:07.622Z,2.90
2023-04-22T20:49:40.495Z,3.17
2023-04-22T20:52:09.203Z,3.60
2023-04-22T20:54:37.661Z,3.70
2023-04-22T20:57:08.253Z,4.70
2023-04-22T20:59:37.024Z,3.60
2023-04-22T21:02:06.756Z,3.70
2023-04-22T21:04:39.292Z,4.83
2023-04-22T21:07:12.247Z,4.73
2023-04-22T21:09:43.644Z,5.20
2023-04-22T21:12:17.424Z,4.40
2023-04-22T21:14:46.437Z,3.90
2023-04-22T21:17:20.572Z,5.07
2023-04-22T21:19:51.950Z,5.30
2023-04-22T21:22:24.399Z,4.87
2023-04-22T21:24:54.588Z,4.93
2023-04-22T21:27:27.032Z,5.10
2023-04-22T21:29:57.035Z,4.27
2023-04-22T21:32:29.499Z,4.60
2023-04-22T21:34:57.853Z,5.30
2023-04-22T21:37:26.056Z,4.57
2023-04-22T21:39:57.236Z,4.03
2023-04-22T21:42:26.921Z,3.97
2023-04-22T21:44:55.041Z,3.27
2023-04-22T21:47:23.182Z,3.53
2023-04-22T21:50:00.612Z,3.83
2023-04-22T21:52:30.388Z,3.17
2023-04-22T21:54:58.556Z,3.80
2023-04-22T21:57:30.766Z,3.60
2023-04-22T21:59:59.067Z,3.63
2023-04-22T22:02:28.671Z,3.30
2023-04-22T22:05:02.833Z,4.00
2023-04-22T22:07:31.060Z,3.10
2023-04-22T22:09:59.232Z,3.17
2023-04-22T22:12:28.704Z,3.63
2023-04-22T22:15:00.232Z,2.93
2023-04-22T22:17:28.762Z,3.10
2023-04-22T22:19:58.656Z,3.40
2023-04-22T22:22:26.891Z,3.40
2023-04-22T22:24:55.095Z,3.60
2023-04-22T22:27:23.285Z,4.10
2023-04-22T22:29:55.738Z,5.13
2023-04-22T22:32:29.087Z,4.03
2023-04-22T22:34:57.315Z,2.50
2023-04-22T22:37:25.546Z,3.00
2023-04-22T22:39:53.805Z,2.37
2023-04-22T22:42:22.017Z,2.97
2023-04-22T22:44:55.840Z,2.40
2023-04-22T22:47:24.877Z,3.20
2023-04-22T22:49:53.518Z,3.50
2023-04-22T22:52:26.183Z,2.80
2023-04-22T22:54:54.342Z,3.40
2023-04-22T22:57:22.556Z,4.73
2023-04-22T22:59:50.718Z,4.33
2023-04-22T23:02:20.556Z,2.43
2023-04-22T23:04:48.962Z,3.70
2023-04-22T23:07:22.399Z,2.90
2023-04-22T23:09:56.481Z,3.97
2023-04-22T23:12:24.624Z,2.90
2023-04-22T23:14:53.547Z,4.70
2023-04-22T23:17:23.185Z,3.97
2023-04-22T23:19:55.554Z,4.10
2023-04-22T23:22:24.203Z,2.50
2023-04-22T23:24:52.979Z,6.53
2023-04-22T23:27:21.779Z,4.27
2023-04-22T23:29:55.769Z,4.30
2023-04-22T23:32:32.513Z,3.30
2023-04-22T23:35:07.853Z,5.27
2023-04-22T23:37:38.177Z,5.47
2023-04-22T23:40:08.155Z,4.80
2023-04-22T23:42:38.245Z,4.30
2023-04-22T23:45:07.360Z,5.07
2023-04-22T23:47:36.905Z,4.47
2023-04-22T23:50:05.974Z,4.10
2023-04-22T23:52:42.837Z,4.70
2023-04-22T23:55:16.236Z,4.67
2023-04-22T23:57:47.334Z,4.03
